Terminal Aerodrome Forecast
Issued by NWS Wichita, KS

Home | Current Version | Previous Version | Text Only | Print | Product List | Glossary Off
Versions: 1 2 3 4 5 6 7 8 9 10 11 12 13

675
FTUS43 KICT 051120
TAFICT
TAF
KICT 051120Z 0512/0612 02005KT P6SM BKN200
     FM052000 16006KT P6SM BKN150
     FM052300 24006KT P6SM OVC120
     FM060200 30006KT P6SM BKN120=

USA.gov is the U.S. government's official web portal to all federal, state and local government web resources and services.